Indianapolis, IN (46256)

1:24 AM EDT on August 29, 2014 (GMT -0400)
Indianapolis Sailing Club | Change Station
CLOSE
Current Station
Personal Weather Station
Location: Geist Reservoir, IN
Elevation: 790 ft
Nearby Weather Stations

Elev 790 ft 39.93 °N, 85.95 °W | Updated 9 minutes ago

Clear
Clear
70.7 °F
Feels Like 70.7 °F
N
6.0
Wind Variable Wind from East

Today
High -- | Low -- °F
--% Chance of Precip.
Yesterday
High -- | Low -- °F
Precip. -- in
7:09 AM 8:20 PM
Waxing Crescent, 12% visible
Pressure 30.03 in
Visibility 10.0 miles
Clouds Mostly Cloudy 25000 ft
Dew Point 67 °F
Humidity 87%
Rainfall 0.00 in
Snow Depth Not available.
UV 0 out of 12
Pollen 10.40 out of 12
Ozone Good
PM2.5 Good
Flu Activity Not available.
METAR KIND 290454Z 11008KT 10SM BKN250 23/17 A3005 RMK AO2 SLP169 T02280172 402890189

More Conditions Fewer Conditions

Pressure 30.03 in
Visibility 10.0 miles
Clouds Mostly Cloudy 25000 ft
Dew Point 67 °F
Humidity 87%
Rainfall 0.00 in
Snow Depth Not available.
UV 0 out of 12
Pollen 10.40 out of 12
Ozone Good
PM2.5 Good
Flu Activity Not available.
METAR KIND 290454Z 11008KT 10SM BKN250 23/17 A3005 RMK AO2 SLP169 T02280172 402890189

More Conditions Fewer Conditions

10-Day Weather Forecast

Almanac

Astronomy

Aug. 29, 2014 Rise Set
Actual Time 7:09 AM EDT 8:20 PM EDT
Civil Twilight 6:41 AM EDT 8:47 PM EDT
Nautical Twilight 6:07 AM EDT 9:21 PM EDT
Astronomical Twilight 5:32 AM EDT 9:55 PM EDT
Moon 10:57 AM EDT 10:17 PM EDT
Length of Visible Light 14h 06m
Length of Day
13h 10m
Tomorrow will be 2m 30s shorter.
Waxing Crescent, 12% of the Moon is Illuminated
Today
Waxing Crescent
Sep 2
First Quarter
Sep 8
Full
Sep 15
Last Quarter
Sep 24
New

Today's Extremes

State Highs State Lows

Community

WunderPhotos

Upload Photos

1,748,192 photos uploaded!

Nearby

Air Quality

  Air Quality AQ Index Pollutant
Yesterday Good
PM10
Yesterday Good
OZONE
Current Good
PM2.5
Current Good
OZONE
Thursday Moderate
PM2.5
Thursday Good
OZONE
Friday Moderate
PM2.5
Friday Moderate
OZONE

Snow Depth

Station Depth Elevation
No new snow has been reported.

Earthquake Activity

City Distance Mag. Time & Date
No recent earthquake activity has been reported nearby.
Minimum magnitude displayed is 2.5.

Coastal Water Temperatures

Place Temperature
No Stations Reporting

Nearby Weather Stations